sensor_id;sensor_type;location;lat;lon;timestamp;pressure;altitude;pressure_sealevel;temperature;humidity
3160;BME280;1591;51.486;7.146;2022-08-03T00:01:40;72807.09;;;21.60;100.00
3160;BME280;1591;51.486;7.146;2022-08-03T00:04:09;72795.88;;;21.57;100.00
3160;BME280;1591;51.486;7.146;2022-08-03T00:06:38;72792.38;;;21.54;100.00
3160;BME280;1591;51.486;7.146;2022-08-03T00:09:06;72806.13;;;21.52;100.00
3160;BME280;1591;51.486;7.146;2022-08-03T00:11:37;72782.03;;;21.48;100.00
3160;BME280;1591;51.486;7.146;2022-08-03T00:14:06;72791.97;;;21.47;100.00
3160;BME280;1591;51.486;7.146;2022-08-03T00:16:35;72791.84;;;21.44;100.00
3160;BME280;1591;51.486;7.146;2022-08-03T00:19:03;72785.56;;;21.41;100.00
3160;BME280;1591;51.486;7.146;2022-08-03T00:21:31;72784.41;;;21.40;100.00
3160;BME280;1591;51.486;7.146;2022-08-03T00:23:59;72784.28;;;21.38;100.00
3160;BME280;1591;51.486;7.146;2022-08-03T00:26:26;72780.91;;;21.37;100.00
3160;BME280;1591;51.486;7.146;2022-08-03T00:28:54;72781.94;;;21.35;100.00
3160;BME280;1591;51.486;7.146;2022-08-03T00:31:22;72778.59;;;21.35;100.00
3160;BME280;1591;51.486;7.146;2022-08-03T00:33:50;72778.44;;;21.32;100.00
3160;BME280;1591;51.486;7.146;2022-08-03T00:36:18;72779.03;;;21.33;100.00
3160;BME280;1591;51.486;7.146;2022-08-03T00:38:46;72770.56;;;21.30;100.00
3160;BME280;1591;51.486;7.146;2022-08-03T00:41:22;72783.88;;;21.30;100.00
3160;BME280;1591;51.486;7.146;2022-08-03T00:43:49;72771.00;;;21.28;100.00
3160;BME280;1591;51.486;7.146;2022-08-03T00:46:20;72763.84;;;21.29;100.00
3160;BME280;1591;51.486;7.146;2022-08-03T00:48:49;72796.78;;;21.53;100.00
3160;BME280;1591;51.486;7.146;2022-08-03T00:51:17;72799.97;;;21.51;100.00
3160;BME280;1591;51.486;7.146;2022-08-03T00:53:46;72811.88;;;21.66;100.00
3160;BME280;1591;51.486;7.146;2022-08-03T00:56:13;72862.22;;;22.14;100.00
3160;BME280;1591;51.486;7.146;2022-08-03T00:58:45;72829.81;;;21.79;100.00
3160;BME280;1591;51.486;7.146;2022-08-03T01:01:27;72822.50;;;21.78;100.00
3160;BME280;1591;51.486;7.146;2022-08-03T01:03:54;72830.66;;;21.85;100.00
3160;BME280;1591;51.486;7.146;2022-08-03T01:06:33;72828.38;;;21.73;100.00
3160;BME280;1591;51.486;7.146;2022-08-03T01:09:08;72829.97;;;21.82;100.00
3160;BME280;1591;51.486;7.146;2022-08-03T01:11:46;72835.78;;;21.87;100.00
3160;BME280;1591;51.486;7.146;2022-08-03T01:14:28;72837.41;;;21.86;100.00
3160;BME280;1591;51.486;7.146;2022-08-03T01:17:07;72839.13;;;21.87;100.00
3160;BME280;1591;51.486;7.146;2022-08-03T01:19:45;72877.97;;;22.28;100.00
3160;BME280;1591;51.486;7.146;2022-08-03T01:25:33;72842.63;;;21.90;100.00
3160;BME280;1591;51.486;7.146;2022-08-03T01:28:19;72842.88;;;21.95;100.00
3160;BME280;1591;51.486;7.146;2022-08-03T01:30:53;72852.78;;;22.04;100.00
3160;BME280;1591;51.486;7.146;2022-08-03T01:33:33;72836.50;;;21.90;100.00
3160;BME280;1591;51.486;7.146;2022-08-03T01:36:06;72845.94;;;22.00;100.00
3160;BME280;1591;51.486;7.146;2022-08-03T01:38:40;72859.38;;;22.02;100.00
3160;BME280;1591;51.486;7.146;2022-08-03T01:41:14;72831.38;;;21.88;100.00
3160;BME280;1591;51.486;7.146;2022-08-03T01:43:44;72865.72;;;22.18;100.00
3160;BME280;1591;51.486;7.146;2022-08-03T01:46:18;72862.16;;;22.02;100.00
3160;BME280;1591;51.486;7.146;2022-08-03T01:48:48;72834.88;;;21.91;100.00
3160;BME280;1591;51.486;7.146;2022-08-03T01:51:20;72848.44;;;21.95;100.00
3160;BME280;1591;51.486;7.146;2022-08-03T01:53:50;72851.38;;;21.98;100.00
3160;BME280;1591;51.486;7.146;2022-08-03T01:56:22;72843.94;;;21.94;100.00
3160;BME280;1591;51.486;7.146;2022-08-03T01:58:52;72857.50;;;21.98;100.00
3160;BME280;1591;51.486;7.146;2022-08-03T02:01:24;72854.88;;;22.01;100.00
3160;BME280;1591;51.486;7.146;2022-08-03T02:03:53;72859.53;;;22.05;100.00
3160;BME280;1591;51.486;7.146;2022-08-03T02:06:23;72864.44;;;22.14;100.00
3160;BME280;1591;51.486;7.146;2022-08-03T02:08:53;72864.44;;;22.14;100.00
3160;BME280;1591;51.486;7.146;2022-08-03T02:11:22;72878.97;;;22.27;100.00
3160;BME280;1591;51.486;7.146;2022-08-03T02:13:50;72866.19;;;22.16;100.00
3160;BME280;1591;51.486;7.146;2022-08-03T02:16:18;72845.34;;;22.00;100.00
3160;BME280;1591;51.486;7.146;2022-08-03T02:18:49;72823.28;;;21.71;100.00
3160;BME280;1591;51.486;7.146;2022-08-03T02:21:17;72782.47;;;21.46;100.00
3160;BME280;1591;51.486;7.146;2022-08-03T02:23:45;72768.38;;;21.31;100.00
3160;BME280;1591;51.486;7.146;2022-08-03T02:26:16;72757.91;;;21.22;100.00
3160;BME280;1591;51.486;7.146;2022-08-03T02:28:48;72770.63;;;21.21;100.00
3160;BME280;1591;51.486;7.146;2022-08-03T02:31:26;72757.91;;;21.22;100.00
3160;BME280;1591;51.486;7.146;2022-08-03T02:34:01;72748.34;;;21.09;100.00
3160;BME280;1591;51.486;7.146;2022-08-03T02:36:35;72714.31;;;20.75;100.00
3160;BME280;1591;51.486;7.146;2022-08-03T02:39:06;72709.03;;;20.80;100.00
3160;BME280;1591;51.486;7.146;2022-08-03T02:41:41;72705.13;;;20.69;100.00
3160;BME280;1591;51.486;7.146;2022-08-03T02:44:11;72703.50;;;20.70;100.00
3160;BME280;1591;51.486;7.146;2022-08-03T02:46:45;72696.22;;;20.69;100.00
3160;BME280;1591;51.486;7.146;2022-08-03T02:49:20;72700.75;;;20.70;100.00
3160;BME280;1591;51.486;7.146;2022-08-03T02:51:52;72692.72;;;20.66;100.00
3160;BME280;1591;51.486;7.146;2022-08-03T02:54:24;72704.41;;;20.66;100.00
3160;BME280;1591;51.486;7.146;2022-08-03T02:56:57;72693.75;;;20.64;100.00
3160;BME280;1591;51.486;7.146;2022-08-03T02:59:25;72679.53;;;20.47;100.00
3160;BME280;1591;51.486;7.146;2022-08-03T03:01:56;72662.03;;;20.41;100.00
3160;BME280;1591;51.486;7.146;2022-08-03T03:04:27;72662.50;;;20.39;100.00
3160;BME280;1591;51.486;7.146;2022-08-03T03:06:57;72658.84;;;20.34;100.00
3160;BME280;1591;51.486;7.146;2022-08-03T03:09:25;72670.09;;;20.36;100.00
3160;BME280;1591;51.486;7.146;2022-08-03T03:11:57;72669.06;;;20.38;100.00
3160;BME280;1591;51.486;7.146;2022-08-03T03:14:25;72645.78;;;20.27;100.00
3160;BME280;1591;51.486;7.146;2022-08-03T03:16:55;72652.03;;;20.30;100.00
3160;BME280;1591;51.486;7.146;2022-08-03T03:19:30;72666.16;;;20.35;100.00
3160;BME280;1591;51.486;7.146;2022-08-03T03:22:00;72670.81;;;20.39;100.00
3160;BME280;1591;51.486;7.146;2022-08-03T03:24:29;72661.78;;;20.36;100.00
3160;BME280;1591;51.486;7.146;2022-08-03T03:26:57;72665.97;;;20.42;100.00
3160;BME280;1591;51.486;7.146;2022-08-03T03:29:25;72673.97;;;20.47;100.00
3160;BME280;1591;51.486;7.146;2022-08-03T03:31:58;72675.91;;;20.41;100.00
3160;BME280;1591;51.486;7.146;2022-08-03T03:34:31;72661.22;;;20.36;100.00
3160;BME280;1591;51.486;7.146;2022-08-03T03:37:00;72666.88;;;20.38;100.00
3160;BME280;1591;51.486;7.146;2022-08-03T03:39:30;72687.47;;;20.39;100.00
3160;BME280;1591;51.486;7.146;2022-08-03T03:41:59;72672.69;;;20.43;100.00
3160;BME280;1591;51.486;7.146;2022-08-03T03:44:28;72665.00;;;20.34;100.00
3160;BME280;1591;51.486;7.146;2022-08-03T03:46:57;72665.72;;;20.37;100.00
3160;BME280;1591;51.486;7.146;2022-08-03T03:49:27;72658.84;;;20.34;100.00
3160;BME280;1591;51.486;7.146;2022-08-03T03:51:56;72671.53;;;20.42;100.00
3160;BME280;1591;51.486;7.146;2022-08-03T03:54:25;72660.47;;;20.33;100.00
3160;BME280;1591;51.486;7.146;2022-08-03T03:56:52;72653.50;;;20.27;100.00
3160;BME280;1591;51.486;7.146;2022-08-03T03:59:19;72658.44;;;20.36;100.00
3160;BME280;1591;51.486;7.146;2022-08-03T04:01:46;72670.81;;;20.39;100.00
3160;BME280;1591;51.486;7.146;2022-08-03T04:04:13;72666.41;;;20.40;100.00
3160;BME280;1591;51.486;7.146;2022-08-03T04:07:03;72662.50;;;20.39;100.00
3160;BME280;1591;51.486;7.146;2022-08-03T04:09:48;72649.56;;;20.26;100.00
3160;BME280;1591;51.486;7.146;2022-08-03T04:12:36;72659.44;;;20.34;100.00
3160;BME280;1591;51.486;7.146;2022-08-03T04:15:07;72655.97;;;20.31;100.00
3160;BME280;1591;51.486;7.146;2022-08-03T04:17:35;72677.06;;;20.42;100.00
3160;BME280;1591;51.486;7.146;2022-08-03T04:20:05;72677.34;;;20.47;100.00
3160;BME280;1591;51.486;7.146;2022-08-03T04:22:34;72688.38;;;20.57;100.00
3160;BME280;1591;51.486;7.146;2022-08-03T04:25:09;72686.66;;;20.55;100.00
3160;BME280;1591;51.486;7.146;2022-08-03T04:27:40;72698.03;;;20.61;100.00
3160;BME280;1591;51.486;7.146;2022-08-03T04:30:10;72682.00;;;20.51;100.00
3160;BME280;1591;51.486;7.146;2022-08-03T04:32:39;72690.84;;;20.62;100.00
3160;BME280;1591;51.486;7.146;2022-08-03T04:35:08;72704.56;;;20.69;100.00
3160;BME280;1591;51.486;7.146;2022-08-03T04:37:40;72708.31;;;20.77;100.00
3160;BME280;1591;51.486;7.146;2022-08-03T04:40:15;72731.31;;;20.92;100.00
3160;BME280;1591;51.486;7.146;2022-08-03T04:42:48;72744.44;;;20.98;100.00
3160;BME280;1591;51.486;7.146;2022-08-03T04:45:17;72736.38;;;21.03;100.00
3160;BME280;1591;51.486;7.146;2022-08-03T04:47:45;72739.88;;;21.06;100.00
3160;BME280;1591;51.486;7.146;2022-08-03T04:50:13;72752.09;;;21.17;100.00
3160;BME280;1591;51.486;7.146;2022-08-03T04:52:43;72756.59;;;21.18;100.00
3160;BME280;1591;51.486;7.146;2022-08-03T04:55:11;72758.34;;;21.20;100.00
3160;BME280;1591;51.486;7.146;2022-08-03T04:57:38;72775.56;;;21.30;100.00
3160;BME280;1591;51.486;7.146;2022-08-03T05:00:07;72791.25;;;21.44;100.00
3160;BME280;1591;51.486;7.146;2022-08-03T05:02:35;72789.06;;;21.44;100.00
3160;BME280;1591;51.486;7.146;2022-08-03T05:05:07;72820.50;;;21.71;100.00
3160;BME280;1591;51.486;7.146;2022-08-03T05:07:37;72795.88;;;21.57;100.00
3160;BME280;1591;51.486;7.146;2022-08-03T05:10:08;72858.94;;;22.04;100.00
3160;BME280;1591;51.486;7.146;2022-08-03T05:12:40;72811.88;;;21.66;100.00
3160;BME280;1591;51.486;7.146;2022-08-03T05:15:10;72819.13;;;21.77;100.00
3160;BME280;1591;51.486;7.146;2022-08-03T05:17:38;72820.31;;;21.78;100.00
3160;BME280;1591;51.486;7.146;2022-08-03T05:20:08;72851.38;;;21.98;100.00
3160;BME280;1591;51.486;7.146;2022-08-03T05:22:39;72878.59;;;22.19;100.00
3160;BME280;1591;51.486;7.146;2022-08-03T05:25:10;72905.22;;;22.49;100.00
3160;BME280;1591;51.486;7.146;2022-08-03T05:27:42;72917.31;;;22.57;100.00
3160;BME280;1591;51.486;7.146;2022-08-03T05:30:10;72931.88;;;22.70;100.00
3160;BME280;1591;51.486;7.146;2022-08-03T05:32:39;73015.59;;;23.49;100.00
3160;BME280;1591;51.486;7.146;2022-08-03T05:35:08;73002.06;;;23.35;100.00
3160;BME280;1591;51.486;7.146;2022-08-03T05:37:36;73028.44;;;23.60;100.00
3160;BME280;1591;51.486;7.146;2022-08-03T05:40:08;73036.91;;;23.63;100.00
3160;BME280;1591;51.486;7.146;2022-08-03T05:42:37;73066.41;;;23.84;100.00
3160;BME280;1591;51.486;7.146;2022-08-03T05:45:05;73074.00;;;24.02;100.00
3160;BME280;1591;51.486;7.146;2022-08-03T05:47:39;73115.63;;;24.31;100.00
3160;BME280;1591;51.486;7.146;2022-08-03T05:50:09;73141.88;;;24.54;100.00
3160;BME280;1591;51.486;7.146;2022-08-03T05:52:48;73146.78;;;24.63;100.00
3160;BME280;1591;51.486;7.146;2022-08-03T05:55:19;73161.38;;;24.75;100.00
3160;BME280;1591;51.486;7.146;2022-08-03T05:57:47;73193.81;;;24.98;100.00
3160;BME280;1591;51.486;7.146;2022-08-03T06:00:15;73191.94;;;24.94;100.00
3160;BME280;1591;51.486;7.146;2022-08-03T06:02:44;73208.53;;;25.13;100.00
3160;BME280;1591;51.486;7.146;2022-08-03T06:05:15;73201.75;;;25.12;100.00
3160;BME280;1591;51.486;7.146;2022-08-03T06:07:44;73221.13;;;25.19;100.00
3160;BME280;1591;51.486;7.146;2022-08-03T06:10:12;73209.09;;;25.14;100.00
3160;BME280;1591;51.486;7.146;2022-08-03T06:12:43;73214.94;;;25.19;100.00
3160;BME280;1591;51.486;7.146;2022-08-03T06:15:14;73224.59;;;25.22;100.00
3160;BME280;1591;51.486;7.146;2022-08-03T06:17:46;73224.41;;;25.30;100.00
3160;BME280;1591;51.486;7.146;2022-08-03T06:20:16;73182.84;;;24.91;100.00
3160;BME280;1591;51.486;7.146;2022-08-03T06:22:45;73195.69;;;25.02;100.00
3160;BME280;1591;51.486;7.146;2022-08-03T06:25:13;73191.34;;;24.94;100.00
3160;BME280;1591;51.486;7.146;2022-08-03T06:27:43;73194.84;;;24.97;100.00
3160;BME280;1591;51.486;7.146;2022-08-03T06:30:15;73200.22;;;25.04;100.00
3160;BME280;1591;51.486;7.146;2022-08-03T06:32:44;73212.94;;;25.12;100.00
3160;BME280;1591;51.486;7.146;2022-08-03T06:35:12;73236.97;;;25.36;100.00
3160;BME280;1591;51.486;7.146;2022-08-03T06:37:42;73237.81;;;25.41;100.00
3160;BME280;1591;51.486;7.146;2022-08-03T06:40:13;73250.78;;;25.55;100.00
3160;BME280;1591;51.486;7.146;2022-08-03T06:42:46;73273.06;;;25.64;100.00
3160;BME280;1591;51.486;7.146;2022-08-03T06:45:14;73270.97;;;25.67;100.00
3160;BME280;1591;51.486;7.146;2022-08-03T06:47:44;73269.94;;;25.69;100.00
3160;BME280;1591;51.486;7.146;2022-08-03T06:50:17;73271.56;;;25.68;100.00
3160;BME280;1591;51.486;7.146;2022-08-03T06:52:50;73281.03;;;25.78;100.00
3160;BME280;1591;51.486;7.146;2022-08-03T06:55:18;73299.69;;;25.94;100.00
3160;BME280;1591;51.486;7.146;2022-08-03T06:57:51;73303.31;;;26.00;100.00
3160;BME280;1591;51.486;7.146;2022-08-03T07:00:20;73314.75;;;26.05;100.00
3160;BME280;1591;51.486;7.146;2022-08-03T07:02:51;73311.38;;;26.05;100.00
3160;BME280;1591;51.486;7.146;2022-08-03T07:05:19;73323.53;;;26.13;100.00
3160;BME280;1591;51.486;7.146;2022-08-03T07:07:55;73338.59;;;26.23;100.00
3160;BME280;1591;51.486;7.146;2022-08-03T07:10:25;73333.00;;;26.23;100.00
3160;BME280;1591;51.486;7.146;2022-08-03T07:12:55;73337.31;;;26.20;100.00
3160;BME280;1591;51.486;7.146;2022-08-03T07:15:22;73330.66;;;26.21;100.00
3160;BME280;1591;51.486;7.146;2022-08-03T07:17:54;73348.16;;;26.36;100.00
3160;BME280;1591;51.486;7.146;2022-08-03T07:20:22;73354.59;;;26.42;100.00
3160;BME280;1591;51.486;7.146;2022-08-03T07:22:50;73369.06;;;26.52;100.00
3160;BME280;1591;51.486;7.146;2022-08-03T07:25:18;73375.63;;;26.60;100.00
3160;BME280;1591;51.486;7.146;2022-08-03T07:27:46;73374.91;;;26.57;100.00
3160;BME280;1591;51.486;7.146;2022-08-03T07:30:16;73375.72;;;26.62;100.00
3160;BME280;1591;51.486;7.146;2022-08-03T07:32:44;73395.47;;;26.77;100.00
3160;BME280;1591;51.486;7.146;2022-08-03T07:35:11;73436.84;;;27.10;100.00
3160;BME280;1591;51.486;7.146;2022-08-03T07:37:39;73472.97;;;27.39;100.00
3160;BME280;1591;51.486;7.146;2022-08-03T07:40:07;73499.84;;;27.62;100.00
3160;BME280;1591;51.486;7.146;2022-08-03T07:42:36;73535.28;;;28.00;100.00
3160;BME280;1591;51.486;7.146;2022-08-03T07:45:07;73522.28;;;27.86;100.00
3160;BME280;1591;51.486;7.146;2022-08-03T07:47:39;73517.75;;;27.73;100.00
3160;BME280;1591;51.486;7.146;2022-08-03T07:50:07;73512.94;;;27.78;100.00
3160;BME280;1591;51.486;7.146;2022-08-03T07:52:37;73512.81;;;27.76;100.00
3160;BME280;1591;51.486;7.146;2022-08-03T07:55:14;73516.34;;;27.79;100.00
3160;BME280;1591;51.486;7.146;2022-08-03T07:57:44;73506.53;;;27.73;100.00
3160;BME280;1591;51.486;7.146;2022-08-03T08:00:24;73502.88;;;27.67;100.00
3160;BME280;1591;51.486;7.146;2022-08-03T08:02:55;73513.41;;;27.76;100.00
3160;BME280;1591;51.486;7.146;2022-08-03T08:05:23;73523.94;;;27.85;100.00
3160;BME280;1591;51.486;7.146;2022-08-03T08:07:52;73538.69;;;28.00;100.00
3160;BME280;1591;51.486;7.146;2022-08-03T08:10:20;73525.94;;;27.92;100.00
3160;BME280;1591;51.486;7.146;2022-08-03T08:12:51;73522.28;;;27.86;100.00
3160;BME280;1591;51.486;7.146;2022-08-03T08:15:18;73518.22;;;27.83;100.00
3160;BME280;1591;51.486;7.146;2022-08-03T08:17:48;73560.78;;;28.17;100.00
3160;BME280;1591;51.486;7.146;2022-08-03T08:20:25;73584.16;;;28.37;100.00
3160;BME280;1591;51.486;7.146;2022-08-03T08:22:55;73587.22;;;28.42;99.04
3160;BME280;1591;51.486;7.146;2022-08-03T08:25:24;73583.22;;;28.41;100.00
3160;BME280;1591;51.486;7.146;2022-08-03T08:27:53;73591.88;;;28.46;100.00
3160;BME280;1591;51.486;7.146;2022-08-03T08:30:23;73605.94;;;28.58;99.07
3160;BME280;1591;51.486;7.146;2022-08-03T08:32:54;73575.25;;;28.63;98.49
3160;BME280;1591;51.486;7.146;2022-08-03T08:35:26;73564.72;;;28.54;98.71
3160;BME280;1591;51.486;7.146;2022-08-03T08:37:54;73634.72;;;28.85;97.60
3160;BME280;1591;51.486;7.146;2022-08-03T08:40:22;73649.31;;;28.98;97.98
3160;BME280;1591;51.486;7.146;2022-08-03T08:42:52;73641.72;;;28.91;96.64
3160;BME280;1591;51.486;7.146;2022-08-03T08:45:22;73642.50;;;29.21;96.50
3160;BME280;1591;51.486;7.146;2022-08-03T08:47:53;73678.59;;;29.23;93.16
3160;BME280;1591;51.486;7.146;2022-08-03T08:50:29;73654.19;;;29.31;93.16
3160;BME280;1591;51.486;7.146;2022-08-03T08:53:04;73704.31;;;29.45;93.82
3160;BME280;1591;51.486;7.146;2022-08-03T08:55:36;73717.69;;;29.54;92.43
3160;BME280;1591;51.486;7.146;2022-08-03T08:58:05;73680.50;;;29.54;91.75
3160;BME280;1591;51.486;7.146;2022-08-03T09:00:44;73709.59;;;29.50;91.60
3160;BME280;1591;51.486;7.146;2022-08-03T09:03:14;73722.84;;;29.56;90.03
3160;BME280;1591;51.486;7.146;2022-08-03T09:05:58;73729.38;;;29.64;89.28
3160;BME280;1591;51.486;7.146;2022-08-03T09:08:27;73740.63;;;29.76;90.14
3160;BME280;1591;51.486;7.146;2022-08-03T09:10:55;73718.94;;;29.58;90.03
3160;BME280;1591;51.486;7.146;2022-08-03T09:13:34;73689.28;;;29.61;91.09
3160;BME280;1591;51.486;7.146;2022-08-03T09:16:25;73732.56;;;29.99;89.38
3160;BME280;1591;51.486;7.146;2022-08-03T09:18:53;73779.16;;;30.07;88.28
3160;BME280;1591;51.486;7.146;2022-08-03T09:21:27;73771.66;;;30.03;86.34
3160;BME280;1591;51.486;7.146;2022-08-03T09:23:59;73800.09;;;30.23;86.14
3160;BME280;1591;51.486;7.146;2022-08-03T09:26:31;73797.28;;;30.23;82.74
3160;BME280;1591;51.486;7.146;2022-08-03T09:29:11;73760.06;;;30.22;82.94
3160;BME280;1591;51.486;7.146;2022-08-03T09:31:41;73771.44;;;29.98;83.43
3160;BME280;1591;51.486;7.146;2022-08-03T09:34:12;73729.66;;;29.96;84.17
3160;BME280;1591;51.486;7.146;2022-08-03T09:36:44;73760.06;;;30.22;84.18
3160;BME280;1591;51.486;7.146;2022-08-03T09:39:17;73785.69;;;30.15;82.86
3160;BME280;1591;51.486;7.146;2022-08-03T09:42:03;73793.31;;;30.22;82.09
3160;BME280;1591;51.486;7.146;2022-08-03T09:44:35;73777.06;;;30.37;81.56
3160;BME280;1591;51.486;7.146;2022-08-03T09:47:04;73813.13;;;30.36;81.90
3160;BME280;1591;51.486;7.146;2022-08-03T09:49:32;73791.66;;;30.23;80.59
3160;BME280;1591;51.486;7.146;2022-08-03T09:52:18;73766.50;;;30.28;80.51
3160;BME280;1591;51.486;7.146;2022-08-03T09:54:51;73806.78;;;30.33;80.27
3160;BME280;1591;51.486;7.146;2022-08-03T09:57:27;73808.91;;;30.30;78.30
3160;BME280;1591;51.486;7.146;2022-08-03T10:00:11;73794.03;;;30.51;79.06
3160;BME280;1591;51.486;7.146;2022-08-03T10:02:44;73837.59;;;30.55;78.47
3160;BME280;1591;51.486;7.146;2022-08-03T10:05:31;73830.78;;;30.54;79.90
3160;BME280;1591;51.486;7.146;2022-08-03T10:08:15;73846.97;;;30.63;77.03
3160;BME280;1591;51.486;7.146;2022-08-03T10:10:53;73844.25;;;30.66;77.32
3160;BME280;1591;51.486;7.146;2022-08-03T10:13:23;73799.88;;;30.56;77.22
3160;BME280;1591;51.486;7.146;2022-08-03T10:15:52;73824.34;;;30.48;77.05
3160;BME280;1591;51.486;7.146;2022-08-03T10:18:25;73835.47;;;30.58;78.53
3160;BME280;1591;51.486;7.146;2022-08-03T10:20:53;73847.66;;;30.66;79.28
3160;BME280;1591;51.486;7.146;2022-08-03T10:23:25;73796.97;;;30.54;78.47
3160;BME280;1591;51.486;7.146;2022-08-03T10:25:59;73848.34;;;30.69;78.49
3160;BME280;1591;51.486;7.146;2022-08-03T10:28:40;73857.72;;;30.77;77.26
3160;BME280;1591;51.486;7.146;2022-08-03T10:31:15;73883.78;;;30.92;78.60
3160;BME280;1591;51.486;7.146;2022-08-03T10:33:49;73868.88;;;30.87;77.06
3160;BME280;1591;51.486;7.146;2022-08-03T10:36:23;73847.91;;;30.98;76.88
3160;BME280;1591;51.486;7.146;2022-08-03T10:38:55;73844.25;;;30.66;73.48
3160;BME280;1591;51.486;7.146;2022-08-03T10:41:31;73812.75;;;30.68;73.70
3160;BME280;1591;51.486;7.146;2022-08-03T10:44:04;73805.72;;;30.62;73.74
3160;BME280;1591;51.486;7.146;2022-08-03T10:46:38;73832.53;;;30.55;74.45
3160;BME280;1591;51.486;7.146;2022-08-03T10:49:12;73800.47;;;30.57;75.50
3160;BME280;1591;51.486;7.146;2022-08-03T10:51:43;73822.72;;;30.76;74.67
3160;BME280;1591;51.486;7.146;2022-08-03T10:54:44;73843.78;;;30.94;73.27
3160;BME280;1591;51.486;7.146;2022-08-03T10:57:49;73880.47;;;30.94;74.46
3160;BME280;1591;51.486;7.146;2022-08-03T11:00:20;73861.13;;;30.78;74.33
3160;BME280;1591;51.486;7.146;2022-08-03T11:03:06;73846.59;;;30.68;72.93
3160;BME280;1591;51.486;7.146;2022-08-03T11:05:39;73830.31;;;30.83;72.66
3160;BME280;1591;51.486;7.146;2022-08-03T11:08:28;73894.44;;;31.04;71.31
3160;BME280;1591;51.486;7.146;2022-08-03T11:11:02;73872.28;;;30.87;71.83
3160;BME280;1591;51.486;7.146;2022-08-03T11:13:59;73890.53;;;31.05;71.69
3160;BME280;1591;51.486;7.146;2022-08-03T11:16:29;73909.19;;;31.19;71.81
3160;BME280;1591;51.486;7.146;2022-08-03T11:19:01;73867.22;;;31.14;72.90
3160;BME280;1591;51.486;7.146;2022-08-03T11:21:55;73871.91;;;31.18;73.73
3160;BME280;1591;51.486;7.146;2022-08-03T11:25:00;73884.75;;;31.29;72.92
3160;BME280;1591;51.486;7.146;2022-08-03T11:27:38;73934.38;;;31.41;70.95
3160;BME280;1591;51.486;7.146;2022-08-03T11:30:09;73936.03;;;31.40;69.19
3160;BME280;1591;51.486;7.146;2022-08-03T11:32:57;73955.47;;;31.59;70.64
3160;BME280;1591;51.486;7.146;2022-08-03T11:35:30;73952.66;;;31.59;69.29
3160;BME280;1591;51.486;7.146;2022-08-03T11:38:05;73962.59;;;31.67;70.89
3160;BME280;1591;51.486;7.146;2022-08-03T11:40:41;73964.38;;;31.69;70.34
3160;BME280;1591;51.486;7.146;2022-08-03T11:43:43;73918.16;;;31.58;69.88
3160;BME280;1591;51.486;7.146;2022-08-03T11:46:13;73928.13;;;31.67;68.64
3160;BME280;1591;51.486;7.146;2022-08-03T11:48:45;73971.06;;;31.67;68.23
3160;BME280;1591;51.486;7.146;2022-08-03T11:51:32;73984.84;;;31.86;67.08
3160;BME280;1591;51.486;7.146;2022-08-03T11:54:05;73963.28;;;31.97;69.34
3160;BME280;1591;51.486;7.146;2022-08-03T11:56:44;73993.69;;;31.94;67.06
3160;BME280;1591;51.486;7.146;2022-08-03T11:59:12;73974.41;;;32.06;66.61
3160;BME280;1591;51.486;7.146;2022-08-03T12:01:40;74021.22;;;32.18;66.05
3160;BME280;1591;51.486;7.146;2022-08-03T12:04:09;73978.50;;;32.10;67.14
3160;BME280;1591;51.486;7.146;2022-08-03T12:06:38;73977.91;;;32.09;67.40
3160;BME280;1591;51.486;7.146;2022-08-03T12:09:38;73977.34;;;32.09;67.30
3160;BME280;1591;51.486;7.146;2022-08-03T12:12:08;74003.13;;;32.31;66.74
3160;BME280;1591;51.486;7.146;2022-08-03T12:14:35;74089.63;;;32.71;66.02
3160;BME280;1591;51.486;7.146;2022-08-03T12:17:02;74054.09;;;32.75;66.00
3160;BME280;1591;51.486;7.146;2022-08-03T12:19:41;74046.47;;;32.68;65.40
3160;BME280;1591;51.486;7.146;2022-08-03T12:22:08;74013.06;;;32.40;65.98
3160;BME280;1591;51.486;7.146;2022-08-03T12:24:41;74055.25;;;32.47;63.97
3160;BME280;1591;51.486;7.146;2022-08-03T12:27:09;74033.03;;;32.57;64.84
3160;BME280;1591;51.486;7.146;2022-08-03T12:29:36;74026.56;;;32.51;63.96
3160;BME280;1591;51.486;7.146;2022-08-03T12:32:04;74030.09;;;32.54;66.30
3160;BME280;1591;51.486;7.146;2022-08-03T12:34:49;74026.56;;;32.51;66.41
3160;BME280;1591;51.486;7.146;2022-08-03T12:37:18;74030.09;;;32.54;65.81
3160;BME280;1591;51.486;7.146;2022-08-03T12:39:51;74040.06;;;32.63;64.91
3160;BME280;1591;51.486;7.146;2022-08-03T12:42:19;74045.31;;;32.67;62.48
3160;BME280;1591;51.486;7.146;2022-08-03T12:44:49;74075.16;;;32.64;64.33
3160;BME280;1591;51.486;7.146;2022-08-03T12:47:16;74068.72;;;32.58;65.04
3160;BME280;1591;51.486;7.146;2022-08-03T12:49:48;74075.75;;;32.64;64.18
3160;BME280;1591;51.486;7.146;2022-08-03T12:52:17;74058.16;;;32.49;66.00
3160;BME280;1591;51.486;7.146;2022-08-03T12:54:55;74054.66;;;32.46;64.84
3160;BME280;1591;51.486;7.146;2022-08-03T12:57:24;74013.06;;;32.40;65.89
3160;BME280;1591;51.486;7.146;2022-08-03T12:59:51;74038.13;;;32.30;63.11
3160;BME280;1591;51.486;7.146;2022-08-03T13:02:22;74014.19;;;32.11;62.92
3160;BME280;1591;51.486;7.146;2022-08-03T13:04:51;74032.34;;;32.27;65.51
3160;BME280;1591;51.486;7.146;2022-08-03T13:07:19;74048.09;;;32.38;65.39
3160;BME280;1591;51.486;7.146;2022-08-03T13:09:49;74016.00;;;32.42;66.04
3160;BME280;1591;51.486;7.146;2022-08-03T13:12:20;74019.50;;;32.45;64.98
3160;BME280;1591;51.486;7.146;2022-08-03T13:14:50;74041.03;;;32.32;64.51
3160;BME280;1591;51.486;7.146;2022-08-03T13:17:18;74042.22;;;32.33;65.78
3160;BME280;1591;51.486;7.146;2022-08-03T13:19:47;74010.72;;;32.38;63.50
3160;BME280;1591;51.486;7.146;2022-08-03T13:22:16;73999.59;;;32.28;64.77
3160;BME280;1591;51.486;7.146;2022-08-03T13:24:45;74030.59;;;32.26;65.98
3160;BME280;1591;51.486;7.146;2022-08-03T13:27:13;74044.06;;;32.37;66.72
3160;BME280;1591;51.486;7.146;2022-08-03T13:29:42;74022.47;;;32.48;62.82
3160;BME280;1591;51.486;7.146;2022-08-03T13:32:10;74045.31;;;32.67;64.31
3160;BME280;1591;51.486;7.146;2022-08-03T13:34:37;74088.06;;;32.75;64.76
3160;BME280;1591;51.486;7.146;2022-08-03T13:37:05;74053.50;;;32.74;62.51
3160;BME280;1591;51.486;7.146;2022-08-03T13:39:33;74079.31;;;32.97;63.19
3160;BME280;1591;51.486;7.146;2022-08-03T13:42:00;74091.06;;;33.07;62.16
3160;BME280;1591;51.486;7.146;2022-08-03T13:44:29;74093.97;;;33.09;62.21